createdAt,value
2018-12-04T00:01:18.415Z,11.81
2018-12-04T00:06:25.268Z,11.87
2018-12-04T00:17:00.032Z,11.82
2018-12-04T00:22:03.466Z,11.84
2018-12-04T00:27:06.778Z,11.84
2018-12-04T00:32:10.211Z,11.88
2018-12-04T00:54:00.631Z,12.01
2018-12-04T00:59:09.366Z,11.97
2018-12-04T01:04:15.618Z,11.93
2018-12-04T01:09:22.210Z,11.89
2018-12-04T01:14:27.502Z,11.88
2018-12-04T01:19:30.755Z,11.88
2018-12-04T01:24:41.743Z,11.80
2018-12-04T01:29:44.978Z,11.67
2018-12-04T01:34:48.390Z,11.55
2018-12-04T01:39:51.635Z,11.58
2018-12-04T01:44:54.928Z,11.49
2018-12-04T01:55:29.315Z,11.47
2018-12-04T02:00:32.551Z,11.49
2018-12-04T02:05:42.219Z,11.48
2018-12-04T02:10:48.526Z,11.54
2018-12-04T02:21:22.990Z,11.56
2018-12-04T02:26:26.344Z,11.50
2018-12-04T02:37:00.570Z,11.44
2018-12-04T02:42:24.072Z,11.54
2018-12-04T02:52:37.097Z,11.71
2018-12-04T02:57:40.428Z,11.69
2018-12-04T03:02:49.351Z,11.58
2018-12-04T03:07:58.339Z,11.59
2018-12-04T03:13:13.935Z,11.52
2018-12-04T03:18:30.061Z,11.45
2018-12-04T03:23:37.068Z,11.36
2018-12-04T03:45:14.414Z,10.87
2018-12-04T03:50:17.603Z,10.03
2018-12-04T03:55:20.798Z,9.42
2018-12-04T04:00:43.959Z,9.32
2018-12-04T04:05:50.666Z,9.22
2018-12-04T04:11:00.874Z,9.17
2018-12-04T04:21:31.808Z,9.18
2018-12-04T04:26:35.178Z,9.06
2018-12-04T04:42:42.752Z,9.06
2018-12-04T04:47:46.065Z,9.02
2018-12-04T04:52:53.184Z,8.99
2018-12-04T04:57:59.909Z,9.00
2018-12-04T05:03:08.746Z,8.85
2018-12-04T05:08:16.052Z,8.94
2018-12-04T05:13:24.918Z,8.83
2018-12-04T05:18:34.360Z,8.81
2018-12-04T05:23:43.142Z,8.87
2018-12-04T05:28:52.579Z,8.88
2018-12-04T05:34:02.052Z,8.74
2018-12-04T05:39:08.795Z,8.67
2018-12-04T05:44:18.054Z,8.68
2018-12-04T05:49:27.413Z,8.59
2018-12-04T05:54:34.651Z,8.56
2018-12-04T05:59:40.887Z,8.66
2018-12-04T06:04:49.551Z,8.68
2018-12-04T06:10:03.275Z,8.63
2018-12-04T06:15:12.447Z,8.74
2018-12-04T06:20:17.487Z,8.74
2018-12-04T06:25:26.535Z,8.79
2018-12-04T06:30:33.266Z,8.72
2018-12-04T06:35:42.047Z,8.61
2018-12-04T06:40:51.718Z,8.68
2018-12-04T06:46:00.878Z,8.63
2018-12-04T07:06:22.080Z,8.70
2018-12-04T07:11:28.940Z,8.50
2018-12-04T07:16:36.062Z,8.42
2018-12-04T07:21:45.099Z,8.35
2018-12-04T07:26:54.570Z,8.36
2018-12-04T07:32:04.019Z,8.34
2018-12-04T07:42:42.755Z,8.41
2018-12-04T07:47:51.545Z,8.42
2018-12-04T07:53:01.068Z,8.46
2018-12-04T07:58:10.403Z,8.47
2018-12-04T08:03:20.144Z,8.64
2018-12-04T08:13:35.635Z,8.68
2018-12-04T08:18:38.945Z,8.64
2018-12-04T08:23:47.985Z,8.71
2018-12-04T08:28:57.592Z,8.82
2018-12-04T08:34:06.815Z,8.88
2018-12-04T08:39:15.813Z,9.07
2018-12-04T08:44:25.607Z,8.89
2018-12-04T08:49:34.677Z,9.11
2018-12-04T08:54:44.185Z,9.09
2018-12-04T08:59:53.623Z,8.87
2018-12-04T09:05:02.544Z,8.81
2018-12-04T09:10:11.570Z,8.72
2018-12-04T09:15:20.844Z,8.76
2018-12-04T09:20:30.103Z,8.91
2018-12-04T09:25:39.613Z,8.93
2018-12-04T09:30:49.006Z,8.97
2018-12-04T09:35:58.371Z,8.94
2018-12-04T09:41:07.202Z,8.50
2018-12-04T09:46:16.346Z,8.78
2018-12-04T09:51:25.504Z,8.96
2018-12-04T09:56:34.983Z,8.87
2018-12-04T10:01:44.118Z,8.61
2018-12-04T10:06:51.341Z,8.80
2018-12-04T10:12:00.707Z,8.86
2018-12-04T10:17:10.162Z,9.41
2018-12-04T10:22:19.683Z,9.22
2018-12-04T10:27:28.881Z,8.80
2018-12-04T10:32:37.669Z,8.79
2018-12-04T10:37:46.818Z,8.89
2018-12-04T10:42:56.080Z,8.60
2018-12-04T10:48:05.279Z,8.73
2018-12-04T10:53:12.298Z,9.32
2018-12-04T10:58:21.830Z,9.80
2018-12-04T11:03:36.541Z,9.19
2018-12-04T11:08:39.707Z,8.66
2018-12-04T11:13:42.902Z,8.58
2018-12-04T11:18:46.090Z,8.71
2018-12-04T11:23:49.360Z,8.76
2018-12-04T11:28:52.624Z,8.54
2018-12-04T11:33:56.000Z,8.47
2018-12-04T11:38:59.326Z,8.64
2018-12-04T11:44:02.616Z,8.73
2018-12-04T11:49:12.099Z,8.61
2018-12-04T11:54:23.476Z,9.04
2018-12-04T11:59:32.738Z,8.70
2018-12-04T12:04:41.918Z,9.45
2018-12-04T12:09:50.926Z,9.14
2018-12-04T12:15:04.360Z,8.69
2018-12-04T12:20:13.591Z,8.63
2018-12-04T12:25:22.891Z,8.98
2018-12-04T12:30:32.876Z,9.23
2018-12-04T12:35:41.931Z,9.15
2018-12-04T12:40:51.014Z,9.34
2018-12-04T12:45:59.665Z,9.69
2018-12-04T12:51:04.570Z,9.32
2018-12-04T12:56:24.712Z,9.45
2018-12-04T13:01:33.951Z,9.64
2018-12-04T13:06:37.305Z,9.33
2018-12-04T13:11:45.984Z,9.02
2018-12-04T13:16:52.867Z,9.54
2018-12-04T13:22:00.215Z,9.46
2018-12-04T13:27:09.843Z,9.17
2018-12-04T13:32:18.987Z,8.51
2018-12-04T13:37:28.421Z,8.27
2018-12-04T13:42:33.257Z,8.14
2018-12-04T13:47:42.125Z,8.14
2018-12-04T13:52:48.919Z,8.18
2018-12-04T13:57:58.072Z,8.20
2018-12-04T14:03:07.336Z,8.22
2018-12-04T14:08:17.104Z,8.32
2018-12-04T14:13:26.132Z,8.38
2018-12-04T14:18:35.624Z,8.68
2018-12-04T14:23:44.549Z,8.67
2018-12-04T14:28:47.826Z,8.55
2018-12-04T14:33:57.487Z,8.29
2018-12-04T14:39:09.111Z,8.42
2018-12-04T14:44:12.671Z,8.01
2018-12-04T14:49:16.056Z,8.09
2018-12-04T14:54:25.234Z,8.04
2018-12-04T14:59:28.565Z,7.97
2018-12-04T15:04:31.863Z,7.61
2018-12-04T15:09:35.329Z,7.49
2018-12-04T15:14:38.906Z,7.36
2018-12-04T15:19:42.298Z,7.33
2018-12-04T15:30:22.545Z,7.25
2018-12-04T15:35:26.194Z,7.20
2018-12-04T15:46:11.310Z,7.08
2018-12-04T15:51:14.592Z,7.10
2018-12-04T15:56:17.964Z,7.15
2018-12-04T16:01:21.159Z,7.14
2018-12-04T16:06:24.455Z,7.10
2018-12-04T16:11:27.755Z,7.12
2018-12-04T16:16:31.027Z,7.13
2018-12-04T16:21:34.186Z,6.98
2018-12-04T16:26:37.397Z,6.99
2018-12-04T16:31:40.666Z,6.98
2018-12-04T16:36:43.830Z,7.12
2018-12-04T16:41:47.023Z,6.94
2018-12-04T16:46:50.332Z,6.73
2018-12-04T16:51:53.508Z,6.73
2018-12-04T16:56:57.298Z,6.70
2018-12-04T17:02:00.457Z,6.69
2018-12-04T17:07:03.623Z,6.60
2018-12-04T17:12:06.904Z,6.71
2018-12-04T17:17:10.431Z,6.76
2018-12-04T17:22:14.627Z,6.75
2018-12-04T17:27:17.948Z,6.81
2018-12-04T17:32:21.330Z,6.69
2018-12-04T17:37:24.698Z,6.53
2018-12-04T17:42:28.050Z,6.43
2018-12-04T17:47:31.330Z,6.29
2018-12-04T17:52:34.764Z,6.07
2018-12-04T17:57:38.255Z,6.01
2018-12-04T18:02:41.516Z,5.96
2018-12-04T18:07:44.740Z,5.91
2018-12-04T18:12:47.954Z,5.83
2018-12-04T18:17:51.154Z,5.82
2018-12-04T18:22:54.521Z,5.92
2018-12-04T18:27:57.883Z,5.94
2018-12-04T18:33:01.247Z,6.08
2018-12-04T18:38:04.612Z,5.84
2018-12-04T18:43:07.926Z,5.85
2018-12-04T18:48:11.138Z,5.77
2018-12-04T18:53:14.515Z,5.77
2018-12-04T18:58:17.694Z,5.61
2018-12-04T19:03:20.943Z,5.61
2018-12-04T19:08:29.652Z,5.54
2018-12-04T19:13:33.094Z,5.57
2018-12-04T19:18:36.330Z,5.76
2018-12-04T19:23:40.323Z,5.74
2018-12-04T19:28:43.524Z,5.73
2018-12-04T19:33:46.884Z,5.57
2018-12-04T19:38:50.095Z,5.82
2018-12-04T19:43:56.394Z,5.62
2018-12-04T19:48:58.994Z,5.62
2018-12-04T19:54:02.520Z,5.75
2018-12-04T19:59:05.806Z,5.96
2018-12-04T20:04:12.319Z,6.09
2018-12-04T20:09:21.356Z,6.09
2018-12-04T20:14:28.351Z,6.21
2018-12-04T20:19:37.624Z,6.20
2018-12-04T20:24:47.097Z,6.34
2018-12-04T20:29:56.435Z,6.05
2018-12-04T20:35:06.069Z,6.15
2018-12-04T20:40:15.719Z,6.16
2018-12-04T20:45:25.430Z,6.21
2018-12-04T20:50:34.925Z,6.06
2018-12-04T20:55:44.125Z,6.07
2018-12-04T21:00:47.571Z,5.83
2018-12-04T21:05:56.455Z,5.88
2018-12-04T21:11:03.291Z,5.90
2018-12-04T21:16:12.219Z,6.07
2018-12-04T21:21:17.204Z,5.80
2018-12-04T21:26:26.071Z,5.78
2018-12-04T21:31:40.594Z,5.60
2018-12-04T21:36:55.453Z,5.87
2018-12-04T21:42:10.236Z,6.04
2018-12-04T21:47:24.290Z,5.90
2018-12-04T21:52:33.536Z,5.90
2018-12-04T21:57:38.883Z,5.94
2018-12-04T22:02:47.597Z,5.86
2018-12-04T22:07:57.024Z,5.87
2018-12-04T22:13:06.790Z,5.83
2018-12-04T22:18:13.723Z,5.98
2018-12-04T22:23:22.551Z,6.00
2018-12-04T22:28:31.935Z,5.82
2018-12-04T22:33:41.174Z,5.35
2018-12-04T22:38:47.351Z,5.18
2018-12-04T22:43:56.907Z,5.42
2018-12-04T22:49:06.502Z,5.48
2018-12-04T22:54:13.495Z,5.54
2018-12-04T22:59:26.294Z,5.61
2018-12-04T23:04:33.230Z,5.67
2018-12-04T23:09:42.235Z,5.61
2018-12-04T23:14:51.789Z,5.57
2018-12-04T23:20:01.465Z,5.48
2018-12-04T23:25:08.648Z,5.38
2018-12-04T23:30:18.468Z,5.36
2018-12-04T23:35:25.234Z,5.47
2018-12-04T23:40:34.296Z,5.57
2018-12-04T23:45:41.051Z,5.64
2018-12-04T23:50:47.661Z,5.66
2018-12-04T23:55:57.060Z,5.67
